Time;durP1;ratioP1;P1;durP2;ratioP2;P2;SDS_P1;SDS_P2;PMS_P1;PMS_P2;Temp;Humidity;BMP_temperature;BMP_pressure;BME280_temperature;BME280_humidity;BME280_pressure;Samples;Min_cycle;Max_cycle;Signal;HPM_P1;HPM_P2
2023/03/26 00:00:39;;;;;;;12.15;1.00;;;7.50;99.90;;;;;;5113879;28;20173;-75
2023/03/26 00:03:05;;;;;;;13.43;1.48;;;7.50;99.90;;;;;;5114531;28;20043;-74
2023/03/26 00:05:31;;;;;;;7.00;0.93;;;7.50;99.90;;;;;;5096192;28;20063;-76
2023/03/26 00:07:57;;;;;;;13.20;1.17;;;7.50;99.90;;;;;;5079205;28;20132;-78
2023/03/26 00:10:24;;;;;;;14.68;1.35;;;7.50;99.90;;;;;;5114353;28;20051;-79
2023/03/26 00:12:50;;;;;;;9.55;1.08;;;7.60;99.90;;;;;;5096171;28;20058;-74
2023/03/26 00:15:16;;;;;;;12.70;1.73;;;7.60;99.90;;;;;;5114430;28;20047;-76
2023/03/26 00:17:45;;;;;;;8.63;1.30;;;7.60;99.90;;;;;;5118373;28;20118;-75
2023/03/26 00:20:11;;;;;;;10.82;1.10;;;7.60;99.90;;;;;;5118304;28;20130;-77
2023/03/26 00:22:39;;;;;;;8.50;0.75;;;7.60;99.90;;;;;;5118058;28;20051;-76
2023/03/26 00:25:06;;;;;;;8.75;0.88;;;7.60;99.90;;;;;;5099789;28;20380;-75
2023/03/26 00:27:32;;;;;;;9.07;0.90;;;7.60;99.90;;;;;;5100066;28;20039;-75
2023/03/26 00:30:00;;;;;;;11.35;1.67;;;7.60;99.90;;;;;;5118011;28;20130;-76
2023/03/26 00:32:30;;;;;;;10.95;1.17;;;7.60;99.90;;;;;;5099407;28;20391;-77
2023/03/26 00:35:00;;;;;;;8.18;1.25;;;7.50;99.90;;;;;;5099624;28;20052;-74
2023/03/26 00:37:26;;;;;;;11.55;0.90;;;7.50;99.90;;;;;;5083350;28;20139;-75
2023/03/26 00:39:58;;;;;;;10.18;0.95;;;7.40;99.90;;;;;;5099507;28;20044;-75
2023/03/26 00:42:27;;;;;;;9.45;1.10;;;7.40;99.90;;;;;;5082471;28;20058;-78
2023/03/26 00:44:59;;;;;;;6.57;0.80;;;7.40;99.90;;;;;;5116925;28;20499;-75
2023/03/26 00:47:26;;;;;;;7.35;0.60;;;7.30;99.90;;;;;;5082867;28;20130;-75
2023/03/26 00:49:56;;;;;;;;;;;7.30;99.90;;;;;;5117579;28;20477;-75
2023/03/26 00:52:22;;;;;;;8.90;0.77;;;7.20;99.90;;;;;;5117413;28;20387;-76
2023/03/26 00:54:51;;;;;;;5.55;0.70;;;7.20;99.90;;;;;;5117463;28;20048;-75
2023/03/26 00:57:20;;;;;;;11.02;1.67;;;7.20;99.90;;;;;;5099302;28;20051;-76
2023/03/26 00:59:47;;;;;;;15.70;1.10;;;7.20;99.90;;;;;;5099237;28;20136;-75
2023/03/26 01:02:16;;;;;;;10.13;1.10;;;7.20;99.90;;;;;;5116583;28;20507;-75
2023/03/26 01:04:54;;;;;;;6.18;0.80;;;7.30;99.90;;;;;;5116784;28;20040;-76
2023/03/26 01:07:27;;;;;;;6.38;0.98;;;7.30;99.90;;;;;;5081217;28;20040;-76
2023/03/26 01:09:57;;;;;;;10.15;0.85;;;7.30;99.90;;;;;;5116650;28;20058;-76
2023/03/26 01:12:32;;;;;;;11.55;1.13;;;7.30;99.90;;;;;;5098571;28;20055;-75
2023/03/26 01:15:00;;;;;;;9.23;1.05;;;7.20;99.90;;;;;;5098830;28;20043;-75
2023/03/26 01:17:32;;;;;;;18.15;1.50;;;7.30;99.90;;;;;;5098347;28;20079;-76
2023/03/26 01:20:18;;;;;;;10.77;1.13;;;7.30;99.90;;;;;;5098868;28;20131;-75
2023/03/26 01:22:52;;;;;;;7.93;1.00;;;7.30;99.90;;;;;;5098245;28;20419;-76
2023/03/26 01:25:20;;;;;;;11.27;1.30;;;7.30;99.90;;;;;;5097567;28;20114;-78
2023/03/26 01:27:53;;;;;;;11.55;1.48;;;7.20;99.90;;;;;;5116643;28;20040;-76
2023/03/26 01:30:40;;;;;;;12.77;0.93;;;7.20;99.90;;;;;;5099131;28;20502;-76
2023/03/26 01:33:13;;;;;;;7.57;1.15;;;7.20;99.90;;;;;;5116333;28;20058;-76
2023/03/26 01:35:49;;;;;;;11.23;0.90;;;7.20;99.90;;;;;;5098550;28;20067;-75
2023/03/26 01:38:28;;;;;;;8.98;1.05;;;7.20;99.90;;;;;;5116196;28;20044;-75
2023/03/26 01:40:56;;;;;;;9.90;1.05;;;7.20;99.90;;;;;;5098501;28;20051;-75
2023/03/26 01:43:45;;;;;;;11.82;1.35;;;7.20;99.90;;;;;;5116061;28;20051;-75
2023/03/26 01:46:14;;;;;;;9.18;1.20;;;7.20;99.90;;;;;;5116034;28;20093;-74
2023/03/26 01:48:43;;;;;;;7.88;1.27;;;7.30;99.90;;;;;;5115993;28;20047;-75
2023/03/26 01:51:11;;;;;;;10.57;1.08;;;7.30;99.90;;;;;;5097550;28;20140;-75
2023/03/26 01:53:43;;;;;;;12.43;1.10;;;7.40;99.90;;;;;;5097695;28;20044;-75
2023/03/26 01:56:18;;;;;;;9.82;1.30;;;7.40;99.90;;;;;;5098090;28;20070;-76
2023/03/26 01:59:04;;;;;;;11.95;1.40;;;7.40;99.90;;;;;;5115833;28;20043;-75
2023/03/26 02:02:03;;;;;;;12.32;1.70;;;7.40;99.90;;;;;;5083396;28;20074;-76
2023/03/26 02:04:41;;;;;;;6.32;1.35;;;7.40;99.90;;;;;;5097755;28;20058;-76
2023/03/26 02:07:27;;;;;;;8.57;1.08;;;7.40;99.90;;;;;;5080663;28;20529;-74
2023/03/26 02:10:18;;;;;;;11.43;1.20;;;7.40;99.90;;;;;;5115664;28;20096;-75
2023/03/26 02:12:44;;;;;;;9.13;1.40;;;7.30;99.90;;;;;;5116044;28;20284;-75
2023/03/26 02:15:11;;;;;;;10.07;1.20;;;7.20;99.90;;;;;;5097398;28;20389;-75
2023/03/26 02:17:39;;;;;;;7.70;1.05;;;7.10;99.90;;;;;;5097407;28;20134;-75
2023/03/26 02:20:08;;;;;;;11.93;1.30;;;6.90;99.90;;;;;;5097993;28;20047;-75
2023/03/26 02:22:39;;;;;;;8.38;1.65;;;6.80;99.90;;;;;;5097256;28;20043;-75
2023/03/26 02:25:17;;;;;;;9.57;1.00;;;6.70;99.90;;;;;;5097586;28;20066;-75
2023/03/26 02:27:43;;;;;;;7.80;0.85;;;6.50;99.90;;;;;;5115424;28;20471;-75
2023/03/26 02:30:13;;;;;;;7.22;0.90;;;6.40;99.90;;;;;;5097135;28;20069;-74
2023/03/26 02:32:38;;;;;;;11.18;1.15;;;6.30;99.90;;;;;;5115867;28;20047;-76
2023/03/26 02:35:05;;;;;;;7.18;1.13;;;6.20;99.90;;;;;;5097270;28;20467;-76
2023/03/26 02:37:32;;;;;;;9.68;1.42;;;6.10;99.90;;;;;;5114494;28;20484;-75
2023/03/26 02:40:01;;;;;;;;;;;6.10;99.90;;;;;;5114987;28;20126;-75
2023/03/26 02:42:27;;;;;;;10.95;1.42;;;6.00;99.90;;;;;;5096874;28;20346;-75
2023/03/26 02:44:53;;;;;;;11.05;1.67;;;6.00;99.90;;;;;;5096914;28;20065;-76
2023/03/26 02:47:18;;;;;;;5.88;1.10;;;6.00;99.90;;;;;;5079641;28;20048;-76
2023/03/26 02:49:44;;;;;;;6.47;1.40;;;6.10;99.90;;;;;;5097483;28;20049;-75
2023/03/26 02:52:10;;;;;;;7.82;0.93;;;6.10;99.90;;;;;;5096954;28;20055;-75
2023/03/26 02:54:36;;;;;;;11.07;1.40;;;6.10;99.90;;;;;;5097537;28;20050;-76
2023/03/26 02:57:02;;;;;;;7.28;1.27;;;6.10;99.90;;;;;;5097115;28;20119;-76
2023/03/26 02:59:28;;;;;;;11.45;1.17;;;6.10;99.90;;;;;;5079991;28;20498;-76
2023/03/26 03:01:53;;;;;;;8.38;1.20;;;6.10;99.90;;;;;;5096429;28;20079;-75
2023/03/26 03:04:20;;;;;;;11.55;1.42;;;6.10;99.90;;;;;;5096582;28;20039;-75
2023/03/26 03:06:45;;;;;;;15.77;2.03;;;6.00;99.90;;;;;;5079675;28;20047;-74
2023/03/26 03:09:12;;;;;;;10.27;1.30;;;6.10;99.90;;;;;;5115111;28;20621;-76
2023/03/26 03:11:39;;;;;;;6.00;1.33;;;6.00;99.90;;;;;;5096404;28;20039;-75
2023/03/26 03:14:05;;;;;;;13.38;2.30;;;6.10;99.90;;;;;;5114428;28;20397;-74
2023/03/26 03:16:31;;;;;;;10.25;1.65;;;6.10;99.90;;;;;;5114250;28;20072;-74
2023/03/26 03:18:57;;;;;;;13.48;1.38;;;6.10;99.90;;;;;;5079249;28;20128;-74
2023/03/26 03:21:25;;;;;;;12.88;1.58;;;6.00;99.90;;;;;;5096239;28;20086;-74
2023/03/26 03:23:54;;;;;;;11.73;1.65;;;5.90;99.90;;;;;;5114089;28;20040;-75
2023/03/26 03:26:26;;;;;;;13.02;1.77;;;5.90;99.90;;;;;;5114961;28;20043;-74
2023/03/26 03:28:55;;;;;;;12.20;1.65;;;5.80;99.90;;;;;;5096821;28;20059;-75
2023/03/26 03:31:21;;;;;;;9.27;1.77;;;5.70;99.90;;;;;;5114097;28;20036;-75
2023/03/26 03:33:47;;;;;;;16.40;4.07;;;5.70;99.90;;;;;;5078961;28;20075;-74
2023/03/26 03:36:17;;;;;;;10.73;1.50;;;5.60;99.90;;;;;;5096187;28;20070;-75
2023/03/26 03:38:43;;;;;;;11.57;1.80;;;5.60;99.90;;;;;;5096124;28;20039;-74
2023/03/26 03:41:10;;;;;;;11.48;2.42;;;5.60;99.90;;;;;;5096129;28;20497;-74
2023/03/26 03:43:35;;;;;;;9.45;2.00;;;5.50;99.90;;;;;;5095713;28;20051;-75
2023/03/26 03:46:02;;;;;;;11.20;1.67;;;5.40;99.90;;;;;;5096007;28;20039;-75
2023/03/26 03:48:28;;;;;;;10.98;2.30;;;5.40;99.90;;;;;;5114341;28;20441;-75
2023/03/26 03:50:55;;;;;;;11.10;1.70;;;5.30;99.90;;;;;;5080624;28;20040;-75
2023/03/26 03:53:24;;;;;;;11.90;1.77;;;5.40;99.90;;;;;;5099884;28;20051;-75
2023/03/26 03:55:54;;;;;;;9.02;1.52;;;5.40;99.90;;;;;;5100107;28;20047;-74
2023/03/26 03:58:22;;;;;;;10.80;2.33;;;5.50;99.90;;;;;;5117978;28;20492;-74
2023/03/26 04:00:49;;;;;;;10.57;2.42;;;5.50;99.90;;;;;;5083194;28;20060;-74
2023/03/26 04:03:16;;;;;;;11.75;2.28;;;5.60;99.90;;;;;;5099895;28;20040;-74
2023/03/26 04:05:48;;;;;;;16.97;3.07;;;5.70;99.90;;;;;;5118370;28;20041;-75
2023/03/26 04:08:15;;;;;;;12.38;3.28;;;5.80;99.90;;;;;;5117550;28;20768;-75
2023/03/26 04:10:42;;;;;;;12.25;2.22;;;5.80;99.90;;;;;;5100275;28;20051;-74
2023/03/26 04:13:10;;;;;;;11.10;2.38;;;5.90;99.90;;;;;;5099768;28;20062;-75
2023/03/26 04:15:35;;;;;;;12.20;2.15;;;6.00;99.90;;;;;;5118001;28;20459;-74
2023/03/26 04:18:01;;;;;;;14.43;2.40;;;6.00;99.90;;;;;;5099597;28;20101;-75
2023/03/26 04:20:27;;;;;;;13.93;2.90;;;6.00;99.90;;;;;;5082565;28;20043;-74
2023/03/26 04:22:53;;;;;;;11.30;2.35;;;6.10;99.90;;;;;;5116290;28;20055;-74
2023/03/26 04:25:18;;;;;;;18.08;3.15;;;6.10;99.90;;;;;;5117540;28;20060;-75
2023/03/26 04:27:46;;;;;;;7.60;1.92;;;6.20;99.90;;;;;;5099087;28;20084;-75
2023/03/26 04:30:19;;;;;;;8.73;2.58;;;6.20;99.90;;;;;;5099647;28;20126;-75
2023/03/26 04:32:45;;;;;;;8.70;1.90;;;6.20;99.90;;;;;;5117400;28;20494;-75
2023/03/26 04:35:15;;;;;;;11.93;2.20;;;6.30;99.90;;;;;;5117069;28;20491;-76
2023/03/26 04:37:43;;;;;;;11.35;2.90;;;6.30;99.90;;;;;;5099211;28;20052;-75
2023/03/26 04:40:19;;;;;;;17.17;2.25;;;6.30;99.90;;;;;;5082155;28;20051;-75
2023/03/26 04:42:45;;;;;;;18.75;2.63;;;6.30;99.90;;;;;;5098970;28;20043;-75
2023/03/26 04:45:16;;;;;;;11.98;2.40;;;6.40;99.90;;;;;;5117135;28;20135;-75
2023/03/26 04:47:42;;;;;;;15.90;2.42;;;6.40;99.90;;;;;;5082044;28;20138;-75
2023/03/26 04:50:10;;;;;;;9.52;2.80;;;6.40;99.90;;;;;;5099063;28;20126;-75
2023/03/26 04:52:36;;;;;;;12.07;2.63;;;6.40;99.90;;;;;;5081649;28;20126;-74
2023/03/26 04:55:05;;;;;;;13.60;3.03;;;6.50;99.90;;;;;;5098952;28;20047;-73
2023/03/26 04:57:36;;;;;;;9.95;2.30;;;6.50;99.90;;;;;;5117420;28;20056;-74
2023/03/26 05:00:17;;;;;;;12.05;2.40;;;6.60;99.90;;;;;;5098281;28;20602;-75
2023/03/26 05:02:44;;;;;;;11.35;2.30;;;6.60;99.90;;;;;;5081142;28;20046;-75
2023/03/26 05:05:10;;;;;;;12.48;2.50;;;6.60;99.90;;;;;;5098771;28;20048;-75
2023/03/26 05:07:36;;;;;;;16.88;2.72;;;6.60;99.90;;;;;;5098407;28;20139;-75
2023/03/26 05:10:03;;;;;;;12.13;2.60;;;6.60;99.90;;;;;;5117425;28;20125;-74
2023/03/26 05:12:29;;;;;;;7.97;2.22;;;6.60;99.90;;;;;;5116671;28;20104;-75
2023/03/26 05:14:55;;;;;;;15.25;3.10;;;6.60;99.90;;;;;;5098418;28;20043;-75
2023/03/26 05:17:23;;;;;;;7.28;2.40;;;6.70;99.90;;;;;;5115738;28;20046;-75
2023/03/26 05:19:50;;;;;;;12.85;2.78;;;6.70;99.90;;;;;;5082063;28;20055;-74
2023/03/26 05:22:19;;;;;;;12.30;2.83;;;6.70;99.90;;;;;;5098438;28;20395;-73
2023/03/26 05:24:45;;;;;;;14.30;3.42;;;6.70;99.90;;;;;;5098425;28;20368;-75
2023/03/26 05:27:19;;;;;;;13.43;3.28;;;6.70;99.90;;;;;;5116676;28;20054;-74
2023/03/26 05:29:45;;;;;;;14.98;3.92;;;6.70;99.90;;;;;;5116518;28;20048;-75
2023/03/26 05:32:11;;;;;;;14.60;3.50;;;6.70;99.90;;;;;;5097980;28;20043;-74
2023/03/26 05:34:39;;;;;;;14.88;3.90;;;6.70;99.90;;;;;;5098099;28;20050;-75
2023/03/26 05:37:05;;;;;;;16.55;2.83;;;6.80;99.90;;;;;;5081248;28;20119;-73
2023/03/26 05:39:32;;;;;;;9.32;2.30;;;6.80;99.90;;;;;;5116599;28;20047;-74
2023/03/26 05:41:58;;;;;;;11.88;2.30;;;6.80;99.90;;;;;;5080862;28;20056;-73
2023/03/26 05:44:24;;;;;;;13.40;2.58;;;6.80;99.90;;;;;;5116790;28;20058;-75
2023/03/26 05:46:50;;;;;;;12.10;2.10;;;6.80;99.90;;;;;;5115935;28;20044;-74
2023/03/26 05:49:15;;;;;;;16.20;2.70;;;6.80;99.90;;;;;;5081859;28;20128;-74
2023/03/26 05:51:41;;;;;;;10.70;2.70;;;6.90;99.90;;;;;;5098629;28;20043;-74
2023/03/26 05:54:07;;;;;;;11.65;2.95;;;6.90;99.90;;;;;;5080703;28;20051;-74
2023/03/26 05:56:33;;;;;;;16.50;2.85;;;6.90;99.90;;;;;;5081657;28;20052;-74
2023/03/26 05:58:59;;;;;;;14.75;2.58;;;6.90;99.90;;;;;;5097462;28;20079;-73
2023/03/26 06:01:25;;;;;;;12.32;2.33;;;6.90;99.90;;;;;;5097560;28;20092;-75
2023/03/26 06:03:50;;;;;;;13.27;2.47;;;6.90;99.90;;;;;;5064187;28;20150;-74
2023/03/26 06:06:19;;;;;;;16.83;3.38;;;6.90;99.90;;;;;;5080528;28;20101;-74
2023/03/26 06:08:50;;;;;;;9.38;2.50;;;6.90;99.90;;;;;;5115391;28;20051;-74
2023/03/26 06:11:17;;;;;;;13.13;2.72;;;7.00;99.90;;;;;;5115575;28;20047;-74
2023/03/26 06:13:44;;;;;;;14.35;2.60;;;7.00;99.90;;;;;;5114729;28;20051;-74
2023/03/26 06:16:11;;;;;;;10.63;2.60;;;7.00;99.90;;;;;;5080288;28;20112;-74
2023/03/26 06:18:36;;;;;;;;;;;7.10;99.90;;;;;;5080855;28;20567;-74
2023/03/26 06:21:04;;;;;;;11.65;2.70;;;7.10;99.90;;;;;;5114026;28;19972;-75
2023/03/26 06:23:30;;;;;;;11.02;3.67;;;7.00;99.90;;;;;;5115235;28;20368;-74
2023/03/26 06:25:56;;;;;;;14.95;3.53;;;7.10;99.90;;;;;;5115570;28;20058;-74
2023/03/26 06:28:22;;;;;;;16.27;3.15;;;7.10;99.90;;;;;;5115072;28;20047;-74
2023/03/26 06:30:48;;;;;;;14.98;2.78;;;7.10;99.90;;;;;;5096763;28;20078;-74
2023/03/26 06:33:14;;;;;;;10.13;2.43;;;7.10;99.90;;;;;;5096974;28;20082;-74
2023/03/26 06:35:41;;;;;;;17.17;3.15;;;7.20;99.90;;;;;;5096857;28;20148;-75
2023/03/26 06:38:07;;;;;;;;;;;7.10;99.90;;;;;;5097565;28;20139;-74
2023/03/26 06:40:33;;;;;;;18.63;3.33;;;7.20;99.90;;;;;;5114961;28;20010;-74
2023/03/26 06:42:59;;;;;;;12.25;3.38;;;7.20;99.90;;;;;;5115087;28;20054;-73
2023/03/26 06:45:26;;;;;;;16.00;2.88;;;7.20;99.90;;;;;;5096786;28;20090;-75
2023/03/26 06:47:52;;;;;;;26.85;3.08;;;7.20;99.90;;;;;;5114762;28;20137;-73
2023/03/26 06:50:18;;;;;;;13.77;3.10;;;7.30;99.90;;;;;;5115037;28;20043;-73
2023/03/26 06:52:44;;;;;;;17.02;2.50;;;7.30;99.90;;;;;;5063166;28;20058;-73
2023/03/26 06:55:10;;;;;;;12.80;2.60;;;7.30;99.90;;;;;;5114687;28;20039;-73
2023/03/26 06:57:36;;;;;;;19.55;2.50;;;7.40;99.90;;;;;;5080133;28;20082;-73
2023/03/26 07:00:03;;;;;;;22.73;3.45;;;7.40;99.90;;;;;;5079537;28;20108;-75
2023/03/26 07:02:29;;;;;;;;;;;7.40;99.90;;;;;;5114878;28;20082;-74
2023/03/26 07:04:55;;;;;;;21.30;2.90;;;7.50;99.90;;;;;;5079611;28;19927;-72
2023/03/26 07:07:23;;;;;;;20.30;2.58;;;7.40;99.90;;;;;;5096366;28;20057;-73
2023/03/26 07:09:49;;;;;;;25.17;3.58;;;7.50;99.90;;;;;;5114264;28;20051;-73
2023/03/26 07:12:16;;;;;;;20.93;3.13;;;7.50;99.90;;;;;;5114725;28;20395;-73
2023/03/26 07:14:41;;;;;;;14.57;2.60;;;7.50;99.90;;;;;;5079872;28;20112;-74
2023/03/26 07:17:07;;;;;;;16.50;2.90;;;7.50;99.90;;;;;;5114080;28;20069;-74
2023/03/26 07:19:33;;;;;;;23.02;2.75;;;7.50;99.90;;;;;;5096106;28;20051;-73
2023/03/26 07:21:59;;;;;;;15.18;2.35;;;7.60;99.90;;;;;;5114343;28;20181;-74
2023/03/26 07:24:26;;;;;;;19.92;2.58;;;7.60;99.90;;;;;;5113920;28;20063;-72
2023/03/26 07:27:00;;;;;;;18.77;2.60;;;7.80;99.90;;;;;;5114240;28;20419;-73
2023/03/26 07:29:38;;;;;;;21.10;2.40;;;7.80;99.90;;;;;;5096253;28;20047;-73
2023/03/26 07:32:17;;;;;;;16.77;2.03;;;7.80;99.90;;;;;;5079328;28;20051;-73
2023/03/26 07:35:09;;;;;;;21.85;2.35;;;7.90;99.90;;;;;;5114066;28;20043;-74
2023/03/26 07:38:12;;;;;;;26.65;2.17;;;7.90;99.90;;;;;;5092857;28;20189;-73
2023/03/26 07:41:06;;;;;;;18.70;2.03;;;7.80;99.90;;;;;;5114644;28;20051;-71
2023/03/26 07:43:44;;;;;;;19.40;1.83;;;8.00;99.90;;;;;;5096039;28;20051;-71
2023/03/26 07:46:11;;;;;;;19.42;2.10;;;8.00;99.90;;;;;;5095944;28;20095;-73
2023/03/26 07:48:42;;;;;;;18.52;1.98;;;8.00;99.90;;;;;;5113818;28;20044;-75
2023/03/26 07:51:09;;;;;;;21.52;2.00;;;7.90;99.90;;;;;;5079291;28;20044;-71
2023/03/26 07:53:35;;;;;;;17.67;2.15;;;8.00;99.90;;;;;;5096369;28;20051;-73
2023/03/26 07:56:15;;;;;;;20.15;1.80;;;8.00;99.90;;;;;;5113475;28;20161;-73
2023/03/26 07:58:52;;;;;;;17.83;1.95;;;8.10;99.90;;;;;;5095631;28;20047;-74
2023/03/26 08:01:47;;;;;;;21.58;1.52;;;8.10;99.90;;;;;;5078959;28;20051;-74
2023/03/26 08:04:52;;;;;;;19.85;2.65;;;8.00;99.90;;;;;;5096488;28;20055;-72
2023/03/26 08:07:59;;;;;;;15.60;1.48;;;8.10;99.90;;;;;;5114485;28;20044;-73
2023/03/26 08:10:30;;;;;;;13.80;1.88;;;8.10;99.90;;;;;;5114293;28;20044;-73
2023/03/26 08:13:24;;;;;;;16.67;2.03;;;8.10;99.90;;;;;;5081652;28;20495;-73
2023/03/26 08:16:22;;;;;;;20.10;1.48;;;8.10;99.90;;;;;;5096184;28;20047;-73
2023/03/26 08:19:09;;;;;;;14.90;1.65;;;8.30;99.90;;;;;;5095559;28;20126;-71
2023/03/26 08:21:50;;;;;;;16.45;1.42;;;8.30;99.90;;;;;;5079991;28;20386;-73
2023/03/26 08:24:35;;;;;;;22.25;2.45;;;8.30;99.90;;;;;;5113285;28;20130;-74
2023/03/26 08:27:38;;;;;;;18.75;2.13;;;8.30;99.90;;;;;;5095719;28;20456;-72
2023/03/26 08:30:08;;;;;;;20.15;1.65;;;8.20;99.90;;;;;;5095225;28;20035;-73
2023/03/26 08:32:34;;;;;;;17.48;1.70;;;8.40;99.90;;;;;;5113466;28;20497;-71
2023/03/26 08:35:02;;;;;;;23.00;2.33;;;8.30;99.90;;;;;;5079242;28;20047;-74
2023/03/26 08:37:28;;;;;;;19.65;2.40;;;8.10;99.90;;;;;;5115874;28;20122;-74
2023/03/26 08:39:54;;;;;;;23.60;2.85;;;8.30;99.90;;;;;;5116920;28;20082;-74
2023/03/26 08:42:40;;;;;;;20.30;2.33;;;8.30;99.90;;;;;;5117040;28;20122;-74
2023/03/26 08:45:30;;;;;;;13.00;2.13;;;8.20;99.90;;;;;;5117239;28;20052;-72
2023/03/26 08:48:44;;;;;;;26.25;2.47;;;8.40;99.90;;;;;;5117855;28;20304;-73
2023/03/26 08:51:35;;;;;;;19.73;2.20;;;8.20;99.90;;;;;;5099854;28;20459;-73
2023/03/26 08:54:40;;;;;;;16.80;1.80;;;8.30;99.90;;;;;;5116989;28;20051;-73
2023/03/26 08:57:26;;;;;;;17.67;2.15;;;8.30;99.90;;;;;;5098861;28;20100;-75
2023/03/26 08:59:58;;;;;;;17.35;2.10;;;8.50;99.90;;;;;;5099608;28;20366;-74
2023/03/26 09:02:38;;;;;;;20.50;1.73;;;8.40;99.90;;;;;;5082739;28;20044;-72
2023/03/26 09:05:44;;;;;;;26.48;1.88;;;8.60;99.90;;;;;;5081585;28;20054;-72
2023/03/26 09:08:13;;;;;;;15.75;1.13;;;8.70;99.90;;;;;;5098451;28;20468;-73
2023/03/26 09:10:51;;;;;;;23.25;1.77;;;8.80;99.90;;;;;;5115594;28;20048;-73
2023/03/26 09:13:54;;;;;;;20.08;1.95;;;8.70;99.90;;;;;;5116570;28;20069;-73
2023/03/26 09:16:58;;;;;;;20.92;1.90;;;8.30;99.90;;;;;;5116647;28;20047;-73
2023/03/26 09:19:54;;;;;;;18.85;2.13;;;8.40;99.90;;;;;;5069921;28;20066;-72
2023/03/26 09:22:26;;;;;;;16.42;1.10;;;8.40;99.90;;;;;;5116659;28;20494;-72
2023/03/26 09:25:10;;;;;;;16.80;1.58;;;8.40;99.90;;;;;;5097888;28;20051;-73
2023/03/26 09:27:56;;;;;;;22.83;1.95;;;8.30;99.90;;;;;;5097994;28;20494;-73
2023/03/26 09:30:31;;;;;;;28.53;1.90;;;8.40;99.90;;;;;;5115551;28;20055;-73
2023/03/26 09:33:15;;;;;;;22.73;1.90;;;8.40;99.90;;;;;;5116139;28;20052;-73
2023/03/26 09:36:07;;;;;;;18.65;1.58;;;8.30;99.90;;;;;;5098507;28;20088;-75
2023/03/26 09:38:50;;;;;;;23.85;1.52;;;8.20;99.90;;;;;;5083221;28;20059;-73
2023/03/26 09:41:26;;;;;;;16.30;1.38;;;8.30;99.90;;;;;;5097996;28;20051;-72
2023/03/26 09:44:16;;;;;;;17.23;1.95;;;8.40;99.90;;;;;;5098074;28;20047;-73
2023/03/26 09:47:12;;;;;;;13.95;1.10;;;8.60;99.90;;;;;;5116765;28;20403;-71
2023/03/26 09:49:38;;;;;;;;;;;8.80;99.90;;;;;;5116867;28;20383;-73
2023/03/26 09:52:26;;;;;;;17.52;1.10;;;8.80;99.90;;;;;;5098013;28;19927;-73
2023/03/26 09:55:23;;;;;;;11.98;1.08;;;9.00;99.90;;;;;;5098593;28;20452;-73
2023/03/26 09:58:10;;;;;;;18.40;1.35;;;8.90;99.90;;;;;;5069543;28;20134;-73
2023/03/26 10:01:07;;;;;;;19.15;1.63;;;9.00;99.90;;;;;;5115574;28;20050;-72
2023/03/26 10:03:48;;;;;;;16.45;1.60;;;8.80;99.90;;;;;;5092036;28;20052;-73
2023/03/26 10:06:20;;;;;;;17.17;1.63;;;9.10;99.90;;;;;;5098135;28;20044;-74
2023/03/26 10:09:32;;;;;;;17.23;1.63;;;9.10;99.90;;;;;;5115339;28;20047;-73
2023/03/26 10:12:17;;;;;;;14.38;1.65;;;9.10;99.90;;;;;;5082175;28;20059;-73
2023/03/26 10:15:17;;;;;;;16.70;1.67;;;9.00;99.90;;;;;;5098357;28;20082;-73
2023/03/26 10:18:01;;;;;;;14.88;1.85;;;9.40;99.90;;;;;;5097484;28;20059;-72
2023/03/26 10:20:56;;;;;;;12.15;1.17;;;9.50;99.90;;;;;;5097243;28;20078;-71
2023/03/26 10:23:47;;;;;;;14.30;0.90;;;9.50;99.90;;;;;;5115426;28;20044;-71
2023/03/26 10:26:38;;;;;;;23.35;1.45;;;9.30;99.90;;;;;;5115641;28;20059;-71
2023/03/26 10:29:24;;;;;;;16.38;1.67;;;9.70;99.90;;;;;;5115109;28;20479;-70
2023/03/26 10:32:02;;;;;;;17.98;1.10;;;9.80;99.90;;;;;;5115126;28;20044;-70
2023/03/26 10:34:30;;;;;;;24.55;2.38;;;10.00;99.90;;;;;;5114990;28;20052;-73
2023/03/26 10:37:06;;;;;;;20.33;1.67;;;10.00;99.90;;;;;;5114860;28;20040;-72
2023/03/26 10:40:04;;;;;;;13.73;1.80;;;9.90;99.90;;;;;;5096870;28;20058;-73
2023/03/26 10:42:54;;;;;;;22.10;2.78;;;10.00;99.90;;;;;;5097510;28;20043;-71
2023/03/26 10:45:23;;;;;;;18.85;2.03;;;9.80;99.90;;;;;;5115541;28;20050;-71
2023/03/26 10:48:09;;;;;;;12.52;1.27;;;9.90;99.90;;;;;;5114354;28;20480;-72
2023/03/26 10:50:51;;;;;;;11.10;1.63;;;9.30;99.90;;;;;;5114293;28;20495;-72
2023/03/26 10:53:29;;;;;;;19.25;1.60;;;9.20;99.90;;;;;;5097458;28;20052;-71
2023/03/26 10:56:06;;;;;;;19.45;1.58;;;9.40;99.90;;;;;;5096191;28;20047;-71
2023/03/26 10:58:34;;;;;;;12.52;1.00;;;9.50;99.90;;;;;;5096289;28;20092;-72
2023/03/26 11:01:09;;;;;;;10.25;1.13;;;9.40;99.90;;;;;;5096113;28;20104;-71
2023/03/26 11:04:02;;;;;;;15.40;1.30;;;9.20;99.90;;;;;;5097288;28;20083;-73
2023/03/26 11:07:00;;;;;;;11.98;1.02;;;9.00;99.90;;;;;;5097087;28;20047;-73
2023/03/26 11:09:39;;;;;;;15.38;1.30;;;9.00;99.90;;;;;;5058758;28;20057;-73
2023/03/26 11:12:20;;;;;;;12.07;1.38;;;9.20;99.90;;;;;;5095598;28;20123;-73
2023/03/26 11:14:52;;;;;;;15.93;1.25;;;9.00;99.90;;;;;;5114935;28;20047;-75
2023/03/26 11:17:33;;;;;;;17.23;1.92;;;8.70;99.90;;;;;;5114559;28;20077;-73
2023/03/26 11:20:27;;;;;;;8.75;1.58;;;8.50;99.90;;;;;;5080252;28;20051;-72
2023/03/26 11:23:21;;;;;;;12.80;1.35;;;8.70;99.90;;;;;;5097100;28;20058;-73
2023/03/26 11:26:05;;;;;;;13.23;1.10;;;8.90;99.90;;;;;;5095580;28;20510;-73
2023/03/26 11:28:37;;;;;;;16.08;1.40;;;8.90;99.90;;;;;;5095871;28;20035;-72
2023/03/26 11:31:34;;;;;;;15.45;1.27;;;8.90;99.90;;;;;;5096482;28;20055;-74
2023/03/26 11:34:05;;;;;;;10.02;1.00;;;9.20;99.90;;;;;;5096348;28;20043;-74
2023/03/26 11:36:38;;;;;;;8.40;0.80;;;9.40;99.90;;;;;;5096105;28;20043;-73
2023/03/26 11:39:12;;;;;;;11.02;0.77;;;9.50;99.90;;;;;;5113855;28;20051;-74
2023/03/26 11:41:38;;;;;;;12.68;1.10;;;9.30;99.90;;;;;;5114537;28;20455;-72
2023/03/26 11:44:24;;;;;;;15.07;1.35;;;9.60;99.90;;;;;;5113830;28;20185;-74
2023/03/26 11:47:00;;;;;;;18.53;2.17;;;9.70;99.90;;;;;;5079760;28;20451;-74
2023/03/26 11:49:28;;;;;;;13.15;1.40;;;9.70;99.90;;;;;;5114101;28;20383;-75
2023/03/26 11:51:54;;;;;;;14.50;1.08;;;9.70;99.90;;;;;;5079324;28;20051;-74
2023/03/26 11:54:21;;;;;;;13.85;1.15;;;9.80;99.90;;;;;;5114000;28;20048;-72
2023/03/26 11:57:00;;;;;;;15.57;1.70;;;9.90;99.90;;;;;;5113482;28;20548;-74
2023/03/26 11:59:29;;;;;;;14.60;1.15;;;9.70;99.90;;;;;;5096056;28;20387;-71
2023/03/26 12:01:58;;;;;;;9.20;1.00;;;10.00;99.90;;;;;;5095629;28;20058;-72
2023/03/26 12:04:34;;;;;;;12.02;1.23;;;10.00;99.90;;;;;;5096416;28;20047;-73
2023/03/26 12:07:22;;;;;;;17.95;1.45;;;9.80;99.90;;;;;;5114351;28;20368;-73
2023/03/26 12:09:53;;;;;;;11.57;1.10;;;9.70;99.90;;;;;;5095769;28;20400;-74
2023/03/26 12:12:20;;;;;;;13.90;1.50;;;10.10;99.90;;;;;;5116555;28;20050;-74
2023/03/26 12:14:47;;;;;;;12.73;1.65;;;10.30;99.90;;;;;;5083527;28;20043;-75
2023/03/26 12:17:38;;;;;;;14.20;0.90;;;10.20;99.90;;;;;;5100670;28;20055;-73
2023/03/26 12:20:26;;;;;;;16.00;1.48;;;9.80;99.90;;;;;;5082882;28;20074;-74
2023/03/26 12:22:58;;;;;;;14.75;1.30;;;9.70;99.90;;;;;;5117715;28;20104;-74
2023/03/26 12:25:28;;;;;;;13.00;1.20;;;9.70;99.90;;;;;;5099105;28;20056;-73
2023/03/26 12:28:02;;;;;;;13.02;1.55;;;9.50;99.90;;;;;;5082521;28;20051;-74
2023/03/26 12:30:34;;;;;;;20.17;2.22;;;9.50;99.90;;;;;;5117659;28;20051;-72
2023/03/26 12:33:04;;;;;;;13.32;1.75;;;9.00;99.90;;;;;;5100326;28;20067;-72
2023/03/26 12:35:33;;;;;;;15.18;1.63;;;9.70;99.90;;;;;;5099643;28;20043;-74
2023/03/26 12:38:33;;;;;;;15.82;2.25;;;9.60;99.90;;;;;;5118615;28;20384;-74
2023/03/26 12:41:05;;;;;;;20.35;2.45;;;10.00;99.90;;;;;;5056295;28;20385;-72
2023/03/26 12:43:39;;;;;;;17.77;1.55;;;10.30;99.90;;;;;;5100452;28;20087;-76
2023/03/26 12:46:19;;;;;;;14.25;1.35;;;10.10;99.90;;;;;;5098967;28;20399;-71
2023/03/26 12:48:46;;;;;;;11.80;1.17;;;10.10;99.90;;;;;;5100047;28;20039;-73
2023/03/26 12:51:40;;;;;;;20.63;1.88;;;10.00;99.90;;;;;;5117305;28;20051;-75
2023/03/26 12:54:22;;;;;;;15.32;2.05;;;9.40;99.90;;;;;;5098763;28;20086;-72
2023/03/26 12:57:15;;;;;;;15.82;1.80;;;9.30;99.90;;;;;;5117787;28;20066;-71
2023/03/26 13:00:18;;;;;;;16.00;1.20;;;9.50;99.90;;;;;;5082898;28;20083;-74
2023/03/26 13:03:05;;;;;;;13.93;1.10;;;9.20;99.90;;;;;;5116817;28;20108;-73
2023/03/26 13:05:59;;;;;;;19.23;1.52;;;9.30;99.90;;;;;;5082303;28;20062;-77
2023/03/26 13:08:43;;;;;;;22.48;1.88;;;9.20;99.90;;;;;;5098695;28;20048;-73
2023/03/26 13:11:09;;;;;;;21.70;2.38;;;9.40;99.90;;;;;;5098624;28;20514;-72
2023/03/26 13:13:57;;;;;;;10.70;1.52;;;9.20;99.90;;;;;;5082587;28;20059;-72
2023/03/26 13:16:41;;;;;;;12.88;1.33;;;9.60;99.90;;;;;;5082007;28;20043;-73
2023/03/26 13:19:13;;;;;;;13.43;1.50;;;9.00;99.90;;;;;;5099361;28;20044;-75
2023/03/26 13:21:48;;;;;;;19.58;2.13;;;9.10;99.90;;;;;;5082403;28;20387;-74
2023/03/26 13:24:33;;;;;;;9.48;1.15;;;9.00;99.90;;;;;;5098257;28;20130;-73
2023/03/26 13:26:59;;;;;;;18.33;2.03;;;9.20;99.90;;;;;;5099379;28;20047;-75